Time;durP1;ratioP1;P1;durP2;ratioP2;P2;SDS_P1;SDS_P2;PMS_P1;PMS_P2;Temp;Humidity;BMP_temperature;BMP_pressure;BME280_temperature;BME280_humidity;BME280_pressure;Samples;Min_cycle;Max_cycle;Signal;HPM_P1;HPM_P2
2024/04/22 00:00:38;;;;;;;6.70;6.10;;;4.30;99.90;;;;;;5277286;27;20753;-67
2024/04/22 00:03:04;;;;;;;7.47;6.63;;;4.40;99.90;;;;;;5278456;27;20239;-66
2024/04/22 00:05:30;;;;;;;7.00;6.30;;;4.40;99.90;;;;;;5277983;27;20307;-66
2024/04/22 00:07:55;;;;;;;9.50;6.57;;;4.40;99.90;;;;;;5277135;27;20618;-67
2024/04/22 00:10:20;;;;;;;7.47;6.77;;;4.40;99.90;;;;;;5277475;27;20341;-66
2024/04/22 00:12:46;;;;;;;6.90;6.20;;;4.40;99.90;;;;;;5277558;27;20219;-67
2024/04/22 00:15:11;;;;;;;7.73;7.03;;;4.30;99.90;;;;;;5277693;27;20283;-67
2024/04/22 00:17:37;;;;;;;6.73;6.13;;;4.30;99.90;;;;;;5275740;27;20258;-66
2024/04/22 00:20:03;;;;;;;6.60;6.00;;;4.30;99.90;;;;;;5277673;27;20724;-67
2024/04/22 00:22:28;;;;;;;7.57;6.87;;;4.30;99.90;;;;;;5277187;27;20336;-67
2024/04/22 00:24:54;;;;;;;7.43;6.70;;;4.40;99.90;;;;;;5277505;27;20281;-66
2024/04/22 00:27:19;;;;;;;7.93;6.77;;;4.40;99.90;;;;;;5276456;27;20269;-66
2024/04/22 00:29:45;;;;;;;7.47;6.67;;;4.30;99.90;;;;;;5276895;27;20223;-67
2024/04/22 00:32:10;;;;;;;9.57;6.77;;;4.30;99.90;;;;;;5277246;27;20235;-66
2024/04/22 00:34:36;;;;;;;8.50;7.67;;;4.30;99.90;;;;;;5276483;27;20324;-67
2024/04/22 00:37:02;;;;;;;7.97;7.17;;;4.20;99.90;;;;;;5276924;27;21181;-66
2024/04/22 00:39:27;;;;;;;6.60;5.93;;;4.20;99.90;;;;;;5277292;27;20302;-66
2024/04/22 00:41:53;;;;;;;7.13;6.50;;;4.20;99.90;;;;;;5276308;27;20725;-66
2024/04/22 00:44:18;;;;;;;7.57;6.43;;;4.20;99.90;;;;;;5271391;27;20266;-66
2024/04/22 00:46:44;;;;;;;6.77;5.97;;;4.20;99.90;;;;;;5277153;27;20235;-66
2024/04/22 00:49:10;;;;;;;11.07;6.90;;;4.30;99.90;;;;;;5276737;27;20274;-66
2024/04/22 00:51:38;;;;;;;8.00;6.43;;;4.30;99.90;;;;;;5276873;27;20474;-66
2024/04/22 00:54:04;;;;;;;7.77;6.37;;;4.30;99.90;;;;;;5277881;27;20220;-67
2024/04/22 00:56:32;;;;;;;6.63;5.90;;;4.30;99.90;;;;;;5277167;27;20466;-66
2024/04/22 00:58:59;;;;;;;7.00;6.30;;;4.30;99.90;;;;;;5276119;27;20578;-66
2024/04/22 01:01:26;;;;;;;6.50;5.80;;;4.40;99.90;;;;;;5276325;27;20466;-66
2024/04/22 01:03:51;;;;;;;7.90;6.43;;;4.50;99.90;;;;;;5277835;27;20450;-66
2024/04/22 01:06:18;;;;;;;6.90;6.23;;;4.40;99.90;;;;;;5276919;27;20590;-66
2024/04/22 01:08:44;;;;;;;7.63;6.57;;;4.50;99.90;;;;;;5274685;27;20329;-68
2024/04/22 01:11:11;;;;;;;8.80;5.77;;;4.50;99.90;;;;;;5276611;27;20459;-66
2024/04/22 01:13:37;;;;;;;6.50;5.67;;;4.40;99.90;;;;;;5277624;27;20599;-68
2024/04/22 01:16:03;;;;;;;7.73;6.30;;;4.40;99.90;;;;;;5276395;27;20454;-66
2024/04/22 01:18:28;;;;;;;6.43;5.83;;;4.40;99.90;;;;;;5276391;27;20639;-66
2024/04/22 01:20:54;;;;;;;6.00;5.40;;;4.40;99.90;;;;;;5276791;27;20658;-67
2024/04/22 01:23:20;;;;;;;6.00;5.50;;;4.40;99.90;;;;;;5277720;27;20312;-66
2024/04/22 01:25:54;;;;;;;6.53;5.90;;;4.40;99.90;;;;;;5277148;27;20503;-68
2024/04/22 01:28:20;;;;;;;6.63;5.90;;;4.40;99.90;;;;;;5276223;27;20224;-66
2024/04/22 01:30:45;;;;;;;6.87;6.07;;;4.40;99.90;;;;;;5275014;27;20570;-66
2024/04/22 01:33:11;;;;;;;6.43;5.87;;;4.40;99.90;;;;;;5276462;27;20325;-66
2024/04/22 01:35:36;;;;;;;10.03;5.80;;;4.40;99.90;;;;;;5276313;27;20274;-68
2024/04/22 01:38:02;;;;;;;6.70;5.97;;;4.40;99.90;;;;;;5276001;27;20231;-66
2024/04/22 01:40:27;;;;;;;6.60;6.00;;;4.40;99.90;;;;;;5275797;27;20325;-66
2024/04/22 01:42:53;;;;;;;6.50;5.80;;;4.40;99.90;;;;;;5275210;27;20235;-66
2024/04/22 01:45:18;;;;;;;6.53;5.60;;;4.40;99.90;;;;;;5276136;27;20733;-66
2024/04/22 01:47:44;;;;;;;7.20;6.57;;;4.40;99.90;;;;;;5274374;27;20236;-66
2024/04/22 01:50:10;;;;;;;6.30;5.33;;;4.40;99.90;;;;;;5273948;27;20277;-67
2024/04/22 01:52:35;;;;;;;11.13;6.37;;;4.40;99.90;;;;;;5276547;27;20223;-65
2024/04/22 01:55:01;;;;;;;6.87;5.93;;;4.40;99.90;;;;;;5276546;27;20510;-66
2024/04/22 01:57:29;;;;;;;7.40;4.77;;;4.40;99.90;;;;;;5276524;27;20260;-67
2024/04/22 01:59:54;;;;;;;5.87;5.27;;;4.20;99.90;;;;;;5276738;27;20254;-69
2024/04/22 02:02:20;;;;;;;6.33;5.73;;;4.30;99.90;;;;;;5274815;27;20462;-70
2024/04/22 02:04:45;;;;;;;7.40;5.37;;;4.30;99.90;;;;;;5276911;27;20224;-70
2024/04/22 02:07:11;;;;;;;9.67;5.37;;;4.20;99.90;;;;;;5276431;27;20283;-68
2024/04/22 02:09:36;;;;;;;6.43;5.73;;;4.20;99.90;;;;;;5275190;27;20277;-71
2024/04/22 02:12:02;;;;;;;5.30;4.80;;;4.30;99.90;;;;;;5275035;27;20831;-70
2024/04/22 02:14:28;;;;;;;5.43;5.00;;;4.30;99.90;;;;;;5276307;27;20268;-70
2024/04/22 02:16:54;;;;;;;6.13;5.23;;;4.30;99.90;;;;;;5275165;27;20266;-70
2024/04/22 02:19:19;;;;;;;7.40;6.20;;;4.30;99.90;;;;;;5276379;27;20310;-70
2024/04/22 02:21:45;;;;;;;6.70;6.10;;;4.30;99.90;;;;;;5275459;27;20470;-70
2024/04/22 02:24:10;;;;;;;6.00;5.20;;;4.20;99.90;;;;;;5275871;27;20319;-69
2024/04/22 02:26:36;;;;;;;6.33;5.77;;;4.10;99.90;;;;;;5275938;27;20994;-71
2024/04/22 02:29:01;;;;;;;6.33;5.73;;;4.10;99.90;;;;;;5276414;27;20219;-70
2024/04/22 02:31:27;;;;;;;7.37;5.80;;;4.10;99.90;;;;;;5274983;27;20231;-69
2024/04/22 02:33:52;;;;;;;8.17;6.17;;;4.00;99.90;;;;;;5275712;27;20231;-71
2024/04/22 02:36:18;;;;;;;6.57;5.97;;;4.00;99.90;;;;;;5275693;27;20277;-71
2024/04/22 02:38:44;;;;;;;7.10;5.93;;;3.90;99.90;;;;;;5275073;27;20261;-70
2024/04/22 02:41:09;;;;;;;6.63;5.73;;;3.90;99.90;;;;;;5277419;27;20518;-70
2024/04/22 02:43:35;;;;;;;10.13;6.33;;;3.90;99.90;;;;;;5278445;27;20262;-71
2024/04/22 02:46:00;;;;;;;6.73;6.03;;;3.90;99.90;;;;;;5278879;27;20226;-70
2024/04/22 02:48:26;;;;;;;7.53;6.83;;;3.90;99.90;;;;;;5279097;27;20231;-71
2024/04/22 02:50:51;;;;;;;7.07;6.37;;;3.90;99.90;;;;;;5278165;27;20333;-70
2024/04/22 02:53:17;;;;;;;6.77;6.10;;;3.90;99.90;;;;;;5278650;27;20228;-69
2024/04/22 02:55:44;;;;;;;7.37;6.07;;;3.90;99.90;;;;;;5279126;27;20728;-70
2024/04/22 02:58:10;;;;;;;9.33;7.37;;;3.90;99.90;;;;;;5278531;27;20766;-70
2024/04/22 03:00:35;;;;;;;6.37;5.60;;;3.90;99.90;;;;;;5278522;27;20442;-70
2024/04/22 03:03:01;;;;;;;7.47;6.77;;;3.90;99.90;;;;;;5278726;27;20265;-70
2024/04/22 03:05:26;;;;;;;8.03;6.33;;;3.90;99.90;;;;;;5278421;27;20717;-70
2024/04/22 03:07:52;;;;;;;9.63;7.10;;;3.80;99.90;;;;;;5278574;27;20223;-70
2024/04/22 03:10:17;;;;;;;6.50;5.90;;;3.90;99.90;;;;;;5278508;27;20274;-70
2024/04/22 03:12:43;;;;;;;6.10;5.47;;;3.90;99.90;;;;;;5277745;27;20343;-70
2024/04/22 03:15:08;;;;;;;7.00;6.30;;;3.80;99.90;;;;;;5278361;27;20279;-71
2024/04/22 03:17:34;;;;;;;7.17;5.63;;;3.80;99.90;;;;;;5278093;27;20270;-70
2024/04/22 03:20:00;;;;;;;8.40;6.47;;;3.80;99.90;;;;;;5278719;27;20774;-70
2024/04/22 03:22:25;;;;;;;8.00;6.60;;;3.80;99.90;;;;;;5277732;27;20518;-68
2024/04/22 03:24:51;;;;;;;7.20;6.50;;;3.80;99.90;;;;;;5278736;27;20287;-70
2024/04/22 03:27:16;;;;;;;6.50;5.47;;;3.70;99.90;;;;;;5278533;27;20608;-70
2024/04/22 03:29:42;;;;;;;8.30;5.90;;;3.70;99.90;;;;;;5278420;27;20230;-71
2024/04/22 03:32:07;;;;;;;7.20;6.50;;;3.70;99.90;;;;;;5277456;27;20291;-70
2024/04/22 03:34:33;;;;;;;8.10;6.17;;;3.70;99.90;;;;;;5277868;27;20655;-70
2024/04/22 03:36:58;;;;;;;7.23;6.40;;;3.70;99.90;;;;;;5278335;27;20546;-71
2024/04/22 03:39:24;;;;;;;7.07;6.37;;;3.80;99.90;;;;;;5278678;27;20250;-70
2024/04/22 03:41:49;;;;;;;6.50;5.90;;;3.70;99.90;;;;;;5277721;27;20716;-70
2024/04/22 03:44:15;;;;;;;7.53;6.57;;;3.60;99.90;;;;;;5278464;27;20232;-71
2024/04/22 03:52:09;;;;;;;6.00;5.50;;;3.50;99.90;;;;;;5276747;27;20509;-71
2024/04/22 03:54:34;;;;;;;6.40;5.80;;;3.50;99.90;;;;;;5277895;27;20450;-69
2024/04/22 03:57:00;;;;;;;7.77;6.57;;;3.50;99.90;;;;;;5278075;27;20231;-71
2024/04/22 03:59:26;;;;;;;8.17;6.63;;;3.40;99.90;;;;;;5277382;27;20235;-70
2024/04/22 04:01:51;;;;;;;6.50;5.93;;;3.50;99.90;;;;;;5277656;27;20270;-70
2024/04/22 04:04:18;;;;;;;9.53;7.47;;;3.40;99.90;;;;;;5277305;27;20454;-70
2024/04/22 04:06:43;;;;;;;9.20;7.97;;;3.50;99.90;;;;;;5278034;27;20329;-69
2024/04/22 04:09:09;;;;;;;9.10;7.90;;;3.50;99.90;;;;;;5278194;27;20996;-71
2024/04/22 04:11:36;;;;;;;7.80;7.10;;;3.50;99.90;;;;;;5277250;27;20281;-71
2024/04/22 04:14:05;;;;;;;12.97;7.80;;;3.50;99.90;;;;;;5277678;27;20333;-70
2024/04/22 04:16:30;;;;;;;6.00;5.43;;;3.50;99.90;;;;;;5275730;27;20482;-70
2024/04/22 04:18:56;;;;;;;6.97;6.17;;;3.40;99.90;;;;;;5278261;27;20527;-71
2024/04/22 04:21:21;;;;;;;6.53;5.93;;;3.40;99.90;;;;;;5277309;27;20262;-70
2024/04/22 04:23:47;;;;;;;9.03;5.97;;;3.40;99.90;;;;;;5277771;27;20714;-70
2024/04/22 04:26:12;;;;;;;7.43;6.40;;;3.30;99.90;;;;;;5278187;27;20265;-70
2024/04/22 04:28:38;;;;;;;6.00;5.40;;;3.20;99.90;;;;;;5278184;27;20287;-70
2024/04/22 04:31:03;;;;;;;6.53;5.90;;;3.20;99.90;;;;;;5277323;27;20333;-70
2024/04/22 04:33:29;;;;;;;5.77;5.27;;;3.10;99.90;;;;;;5275238;27;20570;-70
2024/04/22 04:36:06;;;;;;;6.43;5.43;;;3.10;99.90;;;;;;5277955;27;20211;-70
2024/04/22 04:38:32;;;;;;;5.13;4.73;;;3.00;99.90;;;;;;5277838;27;20274;-70
2024/04/22 04:40:57;;;;;;;6.13;5.30;;;3.00;99.90;;;;;;5276841;27;20466;-71
2024/04/22 04:43:23;;;;;;;6.33;5.70;;;3.00;99.90;;;;;;5278023;27;20442;-71
2024/04/22 04:45:52;;;;;;;5.73;5.10;;;2.90;99.90;;;;;;5277394;27;20223;-70
2024/04/22 04:48:18;;;;;;;6.20;4.80;;;2.90;99.90;;;;;;5277640;27;20227;-71
2024/04/22 04:50:44;;;;;;;6.60;6.00;;;2.90;99.90;;;;;;5276734;27;20586;-70
2024/04/22 04:53:11;;;;;;;6.50;5.90;;;2.90;99.90;;;;;;5277248;27;20875;-70
2024/04/22 04:55:37;;;;;;;11.87;6.40;;;3.00;99.90;;;;;;5277399;27;20598;-71
2024/04/22 04:58:03;;;;;;;7.60;6.40;;;3.00;99.90;;;;;;5277034;27;20478;-70
2024/04/22 05:00:28;;;;;;;7.07;6.23;;;3.00;99.90;;;;;;5277195;27;20446;-70
2024/04/22 05:02:54;;;;;;;7.63;6.43;;;3.10;99.90;;;;;;5277433;27;20261;-71
2024/04/22 05:05:19;;;;;;;6.77;6.17;;;3.20;99.90;;;;;;5277401;27;20341;-70
2024/04/22 05:07:48;;;;;;;5.80;5.30;;;3.20;99.90;;;;;;5276958;27;20791;-70
2024/04/22 05:10:14;;;;;;;6.40;5.90;;;3.10;99.90;;;;;;5243875;27;20706;-70
2024/04/22 05:12:39;;;;;;;5.70;5.17;;;3.10;99.90;;;;;;5273758;27;20466;-70
2024/04/22 05:15:05;;;;;;;10.47;5.73;;;3.00;99.90;;;;;;5276820;27;20227;-70
2024/04/22 05:17:30;;;;;;;11.17;6.20;;;3.00;99.90;;;;;;5276902;27;20732;-70
2024/04/22 05:19:56;;;;;;;6.87;5.73;;;3.10;99.90;;;;;;5277551;27;20265;-71
2024/04/22 05:22:21;;;;;;;5.93;5.43;;;3.10;99.90;;;;;;5277287;27;20758;-70
2024/04/22 05:24:47;;;;;;;5.50;5.00;;;3.10;99.90;;;;;;5276820;27;20226;-70
2024/04/22 05:27:12;;;;;;;6.03;5.40;;;3.10;99.90;;;;;;5276861;27;20223;-69
2024/04/22 05:29:38;;;;;;;5.80;5.30;;;3.10;99.90;;;;;;5276310;27;20675;-71
2024/04/22 05:32:03;;;;;;;6.80;5.30;;;3.10;99.90;;;;;;5277471;27;20725;-70
2024/04/22 05:37:13;;;;;;;6.20;5.00;;;3.30;99.90;;;;;;5276346;27;20305;-70
2024/04/22 05:39:39;;;;;;;5.30;4.53;;;3.20;99.90;;;;;;5275530;27;21092;-70
2024/04/22 05:42:06;;;;;;;5.47;4.97;;;3.10;99.90;;;;;;5278444;27;20781;-70
2024/04/22 05:44:31;;;;;;;9.17;6.13;;;3.10;99.90;;;;;;5277031;27;20234;-70
2024/04/22 05:46:57;;;;;;;5.67;5.17;;;3.20;99.90;;;;;;5276170;27;20446;-71
2024/04/22 05:49:24;;;;;;;7.23;4.80;;;3.30;99.90;;;;;;5276745;27;20670;-70
2024/04/22 05:51:50;;;;;;;4.90;4.50;;;3.40;99.90;;;;;;5275566;27;20235;-70
2024/04/22 05:54:15;;;;;;;6.43;5.00;;;3.50;99.90;;;;;;5276217;27;20625;-70
2024/04/22 05:56:43;;;;;;;5.03;4.40;;;3.50;99.90;;;;;;5275352;27;20637;-70
2024/04/22 05:59:10;;;;;;;7.20;4.90;;;3.60;99.90;;;;;;5276437;27;20257;-70
2024/04/22 06:01:36;;;;;;;4.53;4.13;;;3.70;99.90;;;;;;5274659;27;20525;-70
2024/04/22 06:04:04;;;;;;;5.87;4.80;;;3.80;99.90;;;;;;5275071;27;20858;-71
2024/04/22 06:06:38;;;;;;;9.90;5.07;;;3.90;99.90;;;;;;5275995;27;20230;-71
2024/04/22 06:09:04;;;;;;;6.10;4.40;;;4.00;99.90;;;;;;5275717;27;20580;-69
2024/04/22 06:11:30;;;;;;;5.03;4.63;;;4.10;99.90;;;;;;5275152;27;20462;-70
2024/04/22 06:13:56;;;;;;;4.43;3.83;;;4.00;99.90;;;;;;5276055;27;20223;-69
2024/04/22 06:16:22;;;;;;;5.00;3.93;;;4.10;99.90;;;;;;5273819;27;20454;-70
2024/04/22 06:18:47;;;;;;;4.77;4.23;;;4.00;99.90;;;;;;5274857;27;21055;-70
2024/04/22 06:21:13;;;;;;;4.50;4.10;;;4.10;99.90;;;;;;5274546;27;20802;-69
2024/04/22 06:23:39;;;;;;;4.20;3.60;;;4.10;99.90;;;;;;5275345;27;20261;-69
2024/04/22 06:26:05;;;;;;;6.37;3.93;;;4.10;99.90;;;;;;5273588;27;20722;-70
2024/04/22 06:28:32;;;;;;;5.80;4.23;;;4.20;99.90;;;;;;5275866;27;20223;-70
2024/04/22 06:30:57;;;;;;;4.47;4.07;;;4.20;99.90;;;;;;5276294;27;20509;-70
2024/04/22 06:33:25;;;;;;;5.13;4.63;;;4.20;99.90;;;;;;5276510;27;20443;-70
2024/04/22 06:35:50;;;;;;;4.50;4.10;;;4.20;99.90;;;;;;5274272;27;20261;-72
2024/04/22 06:38:16;;;;;;;4.53;4.03;;;4.20;99.90;;;;;;5268279;27;21007;-70
2024/04/22 06:40:41;;;;;;;4.47;4.07;;;4.20;99.90;;;;;;5274450;27;20259;-70
2024/04/22 06:43:08;;;;;;;4.03;3.60;;;4.10;99.90;;;;;;5276058;27;20207;-70
2024/04/22 06:45:33;;;;;;;5.47;4.30;;;4.20;99.90;;;;;;5276212;27;20219;-69
2024/04/22 06:47:59;;;;;;;5.30;4.10;;;4.30;99.90;;;;;;5275948;27;21040;-70
2024/04/22 06:50:24;;;;;;;5.20;4.80;;;4.40;99.90;;;;;;5275973;27;20653;-70
2024/04/22 06:52:50;;;;;;;4.30;3.90;;;4.40;99.90;;;;;;5276108;27;20223;-70
2024/04/22 06:55:15;;;;;;;8.43;4.30;;;4.50;99.90;;;;;;5276097;27;20215;-70
2024/04/22 06:57:41;;;;;;;5.30;4.63;;;4.60;99.90;;;;;;5275729;27;20279;-70
2024/04/22 07:00:07;;;;;;;4.93;4.43;;;4.70;99.90;;;;;;5275702;27;20207;-70
2024/04/22 07:02:32;;;;;;;3.97;3.67;;;4.70;99.90;;;;;;5276458;27;20312;-69
2024/04/22 07:04:58;;;;;;;5.10;4.70;;;4.60;99.90;;;;;;5276002;27;20971;-71
2024/04/22 07:07:23;;;;;;;6.50;4.30;;;4.60;99.90;;;;;;5275598;27;20215;-70
2024/04/22 07:09:49;;;;;;;4.53;4.13;;;4.60;99.90;;;;;;5275217;27;20289;-68
2024/04/22 07:12:14;;;;;;;5.53;4.30;;;4.70;99.90;;;;;;5251194;27;20279;-71
2024/04/22 07:14:40;;;;;;;7.30;4.50;;;4.70;99.90;;;;;;5271372;27;20333;-70
2024/04/22 07:17:07;;;;;;;5.73;4.27;;;4.70;99.90;;;;;;5275095;27;20875;-70
2024/04/22 07:19:33;;;;;;;5.23;3.90;;;4.80;99.90;;;;;;5275258;27;20246;-70
2024/04/22 07:22:00;;;;;;;4.87;3.90;;;4.80;99.90;;;;;;5275118;27;20511;-70
2024/04/22 07:24:26;;;;;;;5.00;4.40;;;4.70;99.90;;;;;;5275752;27;20223;-71
2024/04/22 07:26:51;;;;;;;3.70;3.40;;;4.70;99.90;;;;;;5275307;27;20963;-70
2024/04/22 07:29:17;;;;;;;6.23;3.80;;;4.80;99.90;;;;;;5278675;27;20219;-70
2024/04/22 07:31:45;;;;;;;7.10;3.97;;;4.80;99.90;;;;;;5278293;27;20359;-70
2024/04/22 07:34:11;;;;;;;4.27;3.83;;;5.10;99.90;;;;;;5277153;27;20262;-70
2024/04/22 07:36:37;;;;;;;4.43;4.10;;;5.20;99.90;;;;;;5278786;27;20454;-70
2024/04/22 07:39:05;;;;;;;4.07;3.77;;;5.50;99.90;;;;;;5278830;27;20518;-70
2024/04/22 07:41:31;;;;;;;7.43;4.13;;;5.70;99.90;;;;;;5278321;27;20508;-71
2024/04/22 07:43:57;;;;;;;4.57;4.17;;;6.30;99.90;;;;;;5277677;27;20941;-70
2024/04/22 07:46:23;;;;;;;4.67;4.13;;;7.00;99.90;;;;;;5276993;27;20999;-71
2024/04/22 07:48:49;;;;;;;4.10;3.70;;;7.20;99.90;;;;;;5278559;27;20450;-70
2024/04/22 07:51:14;;;;;;;5.53;3.90;;;7.30;99.90;;;;;;5277938;27;20277;-70
2024/04/22 07:53:40;;;;;;;4.23;3.93;;;7.10;99.90;;;;;;5278704;27;20713;-70
2024/04/22 07:56:15;;;;;;;7.43;4.50;;;6.90;99.90;;;;;;5278572;27;20317;-70
2024/04/22 07:58:45;;;;;;;3.90;3.60;;;6.90;99.90;;;;;;5278881;27;20517;-67
2024/04/22 08:01:14;;;;;;;10.17;4.50;;;6.90;99.90;;;;;;5277964;27;20457;-69
2024/04/22 08:03:40;;;;;;;4.57;3.80;;;7.00;99.90;;;;;;5278480;27;20454;-67
2024/04/22 08:06:13;;;;;;;4.50;4.10;;;7.10;99.90;;;;;;5278238;27;20502;-68
2024/04/22 08:08:39;;;;;;;5.00;4.50;;;7.10;99.90;;;;;;5278029;27;20466;-68
2024/04/22 08:11:05;;;;;;;4.23;3.73;;;7.20;99.90;;;;;;5278141;27;20458;-68
2024/04/22 08:13:30;;;;;;;4.40;3.80;;;7.40;99.90;;;;;;5277896;27;20868;-69
2024/04/22 08:15:56;;;;;;;3.60;3.30;;;7.60;99.90;;;;;;5278618;27;21240;-68
2024/04/22 08:18:21;;;;;;;5.90;3.10;;;8.20;99.90;;;;;;5277827;27;20223;-68
2024/04/22 08:20:47;;;;;;;3.77;3.20;;;8.50;99.90;;;;;;5277737;27;20341;-71
2024/04/22 08:23:12;;;;;;;4.47;3.17;;;8.80;99.90;;;;;;5265740;27;20569;-69
2024/04/22 08:25:38;;;;;;;3.93;3.53;;;9.00;99.90;;;;;;5276437;27;20270;-69
2024/04/22 08:28:04;;;;;;;5.23;3.43;;;9.10;99.90;;;;;;5277092;27;20232;-68
2024/04/22 08:30:29;;;;;;;4.20;2.90;;;8.80;99.90;;;;;;5277351;27;20278;-68
2024/04/22 08:32:55;;;;;;;2.90;2.30;;;9.10;99.80;;;;;;5277017;27;20243;-69
2024/04/22 08:35:20;;;;;;;6.13;3.30;;;9.10;98.00;;;;;;5275529;27;20231;-70
2024/04/22 08:37:46;;;;;;;3.50;2.77;;;8.90;94.90;;;;;;5276854;27;20257;-68
2024/04/22 08:40:12;;;;;;;3.27;2.97;;;8.50;96.90;;;;;;5276681;27;20693;-72
2024/04/22 08:42:38;;;;;;;4.70;2.77;;;8.60;98.40;;;;;;5276900;27;20223;-69
2024/04/22 08:45:07;;;;;;;2.63;2.43;;;8.80;95.10;;;;;;5276540;27;20584;-69
2024/04/22 08:47:33;;;;;;;3.00;2.80;;;8.60;94.30;;;;;;5276410;27;20884;-69
2024/04/22 08:49:59;;;;;;;3.30;3.00;;;8.50;96.90;;;;;;5276943;27;20566;-69
2024/04/22 08:52:25;;;;;;;5.87;3.00;;;8.70;96.00;;;;;;5276815;27;20219;-68
2024/04/22 08:54:51;;;;;;;3.50;3.00;;;8.80;96.60;;;;;;5276413;27;20891;-69
2024/04/22 08:57:17;;;;;;;3.83;2.40;;;9.00;95.30;;;;;;5276477;27;20566;-70
2024/04/22 08:59:42;;;;;;;3.50;2.50;;;9.00;93.30;;;;;;5276535;27;20744;-68
2024/04/22 09:02:10;;;;;;;3.60;2.77;;;9.00;93.70;;;;;;5276803;27;20588;-68
2024/04/22 09:04:36;;;;;;;4.10;3.70;;;8.80;92.40;;;;;;5275487;27;20239;-69
2024/04/22 09:07:14;;;;;;;3.47;3.17;;;8.60;93.10;;;;;;5274075;27;20552;-68
2024/04/22 09:09:42;;;;;;;4.17;3.10;;;8.60;95.30;;;;;;5266502;27;20231;-68
2024/04/22 09:12:12;;;;;;;3.90;3.20;;;8.60;94.70;;;;;;5271189;27;20583;-70
2024/04/22 09:14:38;;;;;;;3.57;3.27;;;8.70;95.30;;;;;;5275779;27;20507;-70
2024/04/22 09:17:04;;;;;;;4.23;3.23;;;8.80;93.00;;;;;;5276699;27;20443;-69
2024/04/22 09:19:30;;;;;;;5.20;2.60;;;8.80;92.60;;;;;;5276919;27;20239;-69
2024/04/22 09:21:57;;;;;;;3.27;2.97;;;9.10;93.80;;;;;;5276125;27;20450;-70
2024/04/22 09:24:24;;;;;;;3.13;2.93;;;9.80;91.20;;;;;;5276614;27;20667;-68
2024/04/22 09:26:49;;;;;;;3.53;3.20;;;10.00;85.90;;;;;;5276279;27;20497;-71
2024/04/22 09:29:18;;;;;;;3.97;3.67;;;9.90;85.10;;;;;;5276550;27;20486;-68
2024/04/22 09:31:46;;;;;;;5.00;4.53;;;10.10;86.20;;;;;;5276325;27;20763;-70
2024/04/22 09:34:13;;;;;;;3.33;3.03;;;11.10;84.30;;;;;;5276882;27;20454;-70
2024/04/22 09:36:40;;;;;;;4.70;4.03;;;12.00;74.80;;;;;;5277009;27;20851;-69
2024/04/22 09:39:07;;;;;;;6.90;3.40;;;12.50;61.20;;;;;;5277260;27;20535;-67
2024/04/22 09:41:34;;;;;;;3.40;3.20;;;12.60;78.50;;;;;;5276766;27;20470;-68
2024/04/22 09:44:02;;;;;;;5.20;4.10;;;12.10;60.40;;;;;;5277029;27;20799;-71
2024/04/22 09:46:29;;;;;;;5.33;3.30;;;11.30;64.30;;;;;;5275945;27;20454;-69
2024/04/22 09:48:57;;;;;;;4.30;3.80;;;10.40;70.50;;;;;;5275038;27;20589;-71
2024/04/22 09:51:24;;;;;;;4.60;3.47;;;9.90;74.40;;;;;;5272596;27;20525;-68
2024/04/22 09:53:50;;;;;;;4.60;4.20;;;9.90;78.80;;;;;;5276273;27;20467;-70
2024/04/22 09:56:22;;;;;;;4.03;3.63;;;10.10;83.00;;;;;;5255210;27;20571;-68
2024/04/22 09:58:48;;;;;;;3.10;2.90;;;10.40;76.20;;;;;;5243082;27;20522;-72
2024/04/22 10:01:14;;;;;;;3.53;3.23;;;10.30;77.30;;;;;;5249050;27;20455;-68
2024/04/22 10:03:39;;;;;;;4.10;3.70;;;9.90;80.70;;;;;;5274278;27;20239;-69
2024/04/22 10:06:06;;;;;;;3.30;3.10;;;9.70;80.00;;;;;;5275665;27;20689;-68
2024/04/22 10:08:33;;;;;;;3.87;3.47;;;9.70;78.50;;;;;;5275672;27;20231;-69
2024/04/22 10:11:09;;;;;;;3.63;3.30;;;9.30;82.20;;;;;;5275876;27;20450;-68
2024/04/22 10:13:35;;;;;;;4.40;3.03;;;8.80;90.10;;;;;;5275725;27;20454;-68
2024/04/22 10:16:01;;;;;;;9.23;4.50;;;8.60;90.30;;;;;;5272765;27;20478;-68
2024/04/22 10:18:27;;;;;;;3.30;3.00;;;8.30;89.70;;;;;;5276703;27;20621;-68
2024/04/22 10:20:59;;;;;;;3.03;2.83;;;8.50;91.40;;;;;;5272591;27;20999;-68
2024/04/22 10:23:25;;;;;;;2.80;2.60;;;8.70;90.60;;;;;;5275894;27;20294;-69
2024/04/22 10:25:51;;;;;;;3.23;2.93;;;8.90;91.20;;;;;;5276605;27;21091;-68
2024/04/22 10:28:16;;;;;;;7.43;3.47;;;9.20;85.50;;;;;;5276240;27;20466;-68
2024/04/22 10:30:43;;;;;;;3.03;2.73;;;9.50;82.80;;;;;;5275696;27;20243;-68
2024/04/22 10:33:09;;;;;;;3.37;3.07;;;9.90;80.50;;;;;;5274829;27;20242;-68
2024/04/22 10:35:34;;;;;;;2.87;2.40;;;9.90;73.40;;;;;;5276276;27;20454;-69
2024/04/22 10:38:00;;;;;;;3.20;2.90;;;9.90;74.10;;;;;;5276300;27;20261;-69
2024/04/22 10:40:26;;;;;;;4.60;4.30;;;9.90;71.80;;;;;;5275843;27;20767;-71
2024/04/22 10:42:52;;;;;;;3.20;3.00;;;10.10;71.10;;;;;;5276217;27;20345;-68
2024/04/22 10:45:19;;;;;;;3.47;3.17;;;10.30;65.90;;;;;;5274382;27;20268;-68
2024/04/22 10:47:44;;;;;;;2.70;2.50;;;10.40;64.00;;;;;;5275857;27;20215;-68
2024/04/22 10:50:17;;;;;;;3.10;2.90;;;10.60;65.30;;;;;;5276025;27;20514;-69
2024/04/22 10:52:43;;;;;;;3.00;2.73;;;12.10;60.60;;;;;;5275801;27;20326;-69
2024/04/22 10:55:08;;;;;;;5.10;3.53;;;14.80;49.80;;;;;;5276134;27;20462;-69
2024/04/22 10:57:40;;;;;;;3.60;3.30;;;16.60;39.90;;;;;;5276043;27;20446;-71
2024/04/22 11:00:06;;;;;;;3.27;2.97;;;18.00;34.50;;;;;;5275117;27;20672;-69
2024/04/22 11:02:33;;;;;;;3.00;2.80;;;19.10;30.70;;;;;;5277514;27;20465;-72
2024/04/22 11:05:00;;;;;;;3.03;2.83;;;19.80;26.50;;;;;;5281342;27;20503;-70
2024/04/22 11:07:28;;;;;;;3.23;3.03;;;19.90;25.00;;;;;;5279826;27;20462;-69
2024/04/22 11:09:55;;;;;;;2.97;2.77;;;19.10;24.10;;;;;;5280250;27;20493;-69
2024/04/22 11:12:21;;;;;;;5.10;2.67;;;16.60;25.50;;;;;;5279605;27;20509;-68
2024/04/22 11:14:48;;;;;;;3.23;2.70;;;14.40;28.00;;;;;;5279130;27;20608;-70
2024/04/22 11:17:20;;;;;;;4.73;4.33;;;14.70;29.60;;;;;;5279269;27;20570;-69
2024/04/22 11:19:46;;;;;;;3.60;3.30;;;15.20;28.70;;;;;;5278602;27;20506;-69
2024/04/22 11:22:11;;;;;;;2.70;2.50;;;14.70;29.00;;;;;;5269078;27;20898;-72
2024/04/22 11:24:37;;;;;;;3.30;3.00;;;13.70;30.00;;;;;;5279289;27;20261;-68
2024/04/22 11:27:03;;;;;;;2.80;2.60;;;13.20;32.20;;;;;;5277548;27;20223;-69
2024/04/22 11:29:29;;;;;;;3.33;2.80;;;13.10;31.30;;;;;;5278660;27;20591;-68
2024/04/22 11:31:55;;;;;;;2.67;2.47;;;12.30;31.90;;;;;;5277577;27;20506;-70
2024/04/22 11:34:23;;;;;;;5.50;2.60;;;12.00;34.80;;;;;;5277686;27;20223;-69
2024/04/22 11:36:56;;;;;;;3.07;2.87;;;11.80;35.30;;;;;;5278667;27;20839;-70
2024/04/22 11:39:21;;;;;;;2.63;2.43;;;13.90;35.20;;;;;;5278849;27;20454;-70
2024/04/22 11:41:47;;;;;;;2.83;2.50;;;17.50;29.60;;;;;;5278690;27;20880;-69
2024/04/22 11:44:13;;;;;;;2.30;2.20;;;18.50;25.50;;;;;;5278594;27;20681;-69
2024/04/22 11:46:41;;;;;;;2.83;2.63;;;17.00;25.40;;;;;;5278613;27;20212;-69
2024/04/22 11:49:07;;;;;;;3.20;3.00;;;18.10;25.70;;;;;;5278613;27;20239;-69
2024/04/22 11:51:32;;;;;;;2.80;2.60;;;18.50;23.30;;;;;;5278696;27;21086;-69
2024/04/22 11:53:58;;;;;;;3.13;2.93;;;17.40;23.30;;;;;;5278454;27;20223;-68
2024/04/22 11:56:30;;;;;;;3.27;2.63;;;16.50;24.10;;;;;;5278598;27;20274;-69
2024/04/22 11:58:56;;;;;;;3.60;2.37;;;17.80;24.40;;;;;;5278351;27;20239;-69
2024/04/22 12:01:22;;;;;;;2.30;2.20;;;18.20;23.10;;;;;;5278262;27;20478;-69
2024/04/22 12:03:47;;;;;;;2.97;2.77;;;17.60;22.90;;;;;;5278370;27;20515;-70
2024/04/22 12:06:13;;;;;;;2.90;2.70;;;16.50;23.80;;;;;;5278418;27;20227;-69
2024/04/22 12:08:38;;;;;;;2.37;2.27;;;16.80;24.60;;;;;;5278096;27;20314;-69
2024/04/22 12:11:04;;;;;;;3.23;2.73;;;18.90;24.00;;;;;;5278343;27;20701;-71
2024/04/22 12:13:30;;;;;;;3.20;2.60;;;21.00;22.30;;;;;;5277864;27;20215;-70
2024/04/22 12:15:55;;;;;;;3.30;2.93;;;21.70;19.70;;;;;;5278062;27;20295;-70
2024/04/22 12:18:20;;;;;;;2.97;2.77;;;21.60;19.80;;;;;;5277905;27;20581;-68
2024/04/22 12:20:46;;;;;;;2.43;2.33;;;23.00;19.50;;;;;;5278066;27;20257;-67
2024/04/22 12:23:12;;;;;;;3.13;2.67;;;23.00;18.50;;;;;;5278039;27;20219;-68
2024/04/22 12:25:37;;;;;;;2.83;2.50;;;22.50;17.50;;;;;;5276172;27;20269;-69
2024/04/22 12:28:03;;;;;;;3.10;2.80;;;20.20;18.30;;;;;;5271806;27;20274;-69
2024/04/22 12:30:28;;;;;;;3.23;3.03;;;17.70;20.70;;;;;;5277605;27;20227;-68
2024/04/22 12:32:54;;;;;;;2.47;2.27;;;15.10;22.90;;;;;;5278603;27;20261;-69
2024/04/22 12:35:19;;;;;;;3.33;3.03;;;14.10;24.70;;;;;;5277805;27;20223;-68
2024/04/22 12:37:45;;;;;;;3.00;2.80;;;13.70;25.90;;;;;;5277438;27;20211;-69
2024/04/22 12:40:10;;;;;;;2.93;2.73;;;13.40;26.10;;;;;;5277656;27;20216;-69
2024/04/22 12:42:36;;;;;;;2.83;2.10;;;12.90;26.40;;;;;;5278208;27;20678;-69
2024/04/22 12:45:03;;;;;;;2.67;2.47;;;12.60;27.00;;;;;;5277934;27;20211;-69
2024/04/22 12:52:58;;;;;;;2.67;2.47;;;12.80;27.60;;;;;;5277888;27;20490;-70
2024/04/22 12:55:23;;;;;;;3.17;2.87;;;12.80;28.10;;;;;;5276039;27;20513;-68
2024/04/22 12:57:48;;;;;;;2.57;2.37;;;12.90;27.50;;;;;;5277188;27;20747;-68
2024/04/22 13:00:14;;;;;;;3.20;3.00;;;15.60;26.30;;;;;;5277468;27;20267;-71
2024/04/22 13:02:40;;;;;;;3.30;3.00;;;19.00;24.00;;;;;;5274324;27;20227;-69